Time;durP1;ratioP1;P1;durP2;ratioP2;P2;SDS_P1;SDS_P2;PMS_P1;PMS_P2;Temp;Humidity;BMP_temperature;BMP_pressure;BME280_temperature;BME280_humidity;BME280_pressure;Samples;Min_cycle;Max_cycle;Signal;HPM_P1;HPM_P2
2022/04/18 00:01:10;;;;;;;16.55;11.07;;;9.70;70.40;;;;;;5009120;28;20065;-72
2022/04/18 00:03:36;;;;;;;16.27;11.55;;;9.60;70.80;;;;;;4994765;28;20112;-72
2022/04/18 00:06:02;;;;;;;16.23;11.13;;;9.60;71.40;;;;;;5027097;28;20042;-72
2022/04/18 00:08:28;;;;;;;16.25;10.32;;;9.50;72.00;;;;;;4978998;28;20042;-72
2022/04/18 00:10:53;;;;;;;15.55;11.20;;;9.60;72.20;;;;;;5026878;28;20491;-72
2022/04/18 00:13:19;;;;;;;14.38;10.60;;;9.40;72.40;;;;;;4994282;28;20076;-72
2022/04/18 00:15:44;;;;;;;15.30;10.63;;;9.50;73.00;;;;;;4978666;28;20415;-72
2022/04/18 00:18:10;;;;;;;14.90;10.73;;;9.50;73.40;;;;;;5027813;28;20038;-72
2022/04/18 00:20:35;;;;;;;15.77;10.60;;;9.50;73.30;;;;;;5026671;28;20417;-72
2022/04/18 00:23:01;;;;;;;16.30;10.43;;;9.50;74.00;;;;;;4993915;28;20046;-72
2022/04/18 00:25:27;;;;;;;15.65;10.85;;;9.50;73.30;;;;;;5008458;28;20128;-72
2022/04/18 00:27:52;;;;;;;15.00;10.00;;;9.40;73.80;;;;;;5027984;28;20062;-72
2022/04/18 00:30:18;;;;;;;16.88;10.30;;;9.30;74.80;;;;;;5026602;28;20046;-72
2022/04/18 00:32:43;;;;;;;15.77;10.43;;;9.30;75.40;;;;;;4994622;28;20483;-72
2022/04/18 00:35:09;;;;;;;16.88;11.20;;;9.30;75.10;;;;;;5010212;28;20042;-72
2022/04/18 00:37:36;;;;;;;16.50;10.20;;;9.30;75.80;;;;;;4978442;28;20498;-72
2022/04/18 00:40:04;;;;;;;16.25;11.13;;;9.30;76.50;;;;;;5026807;28;20084;-72
2022/04/18 00:42:29;;;;;;;17.38;10.93;;;9.20;76.80;;;;;;4994458;28;20121;-72
2022/04/18 00:44:55;;;;;;;16.58;11.20;;;9.10;77.50;;;;;;5025860;28;20125;-72
2022/04/18 00:47:20;;;;;;;15.45;10.68;;;9.00;78.40;;;;;;5027193;28;20100;-72
2022/04/18 00:49:46;;;;;;;17.00;11.63;;;9.00;79.20;;;;;;5026303;28;20462;-72
2022/04/18 00:52:12;;;;;;;15.88;11.00;;;9.00;79.70;;;;;;5010885;28;20483;-72
2022/04/18 00:54:37;;;;;;;18.02;10.95;;;8.90;80.30;;;;;;4995391;28;20061;-72
2022/04/18 00:57:03;;;;;;;15.07;10.68;;;9.00;80.40;;;;;;5024559;28;20048;-72
2022/04/18 00:59:31;;;;;;;17.35;11.23;;;9.00;81.10;;;;;;5025998;28;20038;-72
2022/04/18 01:01:57;;;;;;;17.55;10.50;;;9.00;81.00;;;;;;4993470;28;20042;-72
2022/04/18 01:04:23;;;;;;;15.65;10.68;;;9.00;81.70;;;;;;4977624;28;20053;-72
2022/04/18 01:06:49;;;;;;;16.85;11.88;;;8.90;81.70;;;;;;4994041;28;20034;-72
2022/04/18 01:09:14;;;;;;;16.77;11.07;;;9.00;82.20;;;;;;5009931;28;20116;-72
2022/04/18 01:11:40;;;;;;;17.13;11.63;;;9.00;83.80;;;;;;5026648;28;20089;-72
2022/04/18 01:14:06;;;;;;;18.83;11.80;;;8.90;82.30;;;;;;5010211;28;20066;-72
2022/04/18 01:16:32;;;;;;;18.95;11.68;;;8.90;83.20;;;;;;5026698;28;20129;-72
2022/04/18 01:18:57;;;;;;;17.73;11.75;;;8.80;84.20;;;;;;5009812;28;20097;-72
2022/04/18 01:21:23;;;;;;;16.77;11.00;;;8.80;84.70;;;;;;5025477;28;20077;-72
2022/04/18 01:23:49;;;;;;;19.30;11.75;;;8.90;84.40;;;;;;4993949;28;20402;-72
2022/04/18 01:28:59;;;;;;;18.95;11.70;;;8.90;85.40;;;;;;4993353;28;20042;-72
2022/04/18 01:31:33;;;;;;;19.27;11.95;;;8.80;84.70;;;;;;5025441;28;20038;-72
2022/04/18 01:33:59;;;;;;;18.20;12.07;;;8.80;84.60;;;;;;5026377;28;20487;-72
2022/04/18 01:36:26;;;;;;;19.73;12.70;;;8.90;85.90;;;;;;4993094;28;20030;-72
2022/04/18 01:38:52;;;;;;;18.05;12.38;;;8.90;84.00;;;;;;4993201;28;20368;-72
2022/04/18 01:41:18;;;;;;;18.52;11.90;;;8.90;84.10;;;;;;4977354;28;20387;-72
2022/04/18 01:43:44;;;;;;;17.00;11.77;;;8.80;84.50;;;;;;5026147;28;20486;-72
2022/04/18 01:46:10;;;;;;;17.70;11.63;;;8.80;87.50;;;;;;5025830;28;20155;-72
2022/04/18 01:48:35;;;;;;;18.20;12.20;;;8.80;85.40;;;;;;4976738;28;20038;-72
2022/04/18 01:51:01;;;;;;;19.35;12.90;;;8.80;85.70;;;;;;4992977;28;20046;-71
2022/04/18 01:53:28;;;;;;;21.38;12.00;;;8.60;86.90;;;;;;5026127;28;20042;-72
2022/04/18 01:55:53;;;;;;;21.27;12.02;;;8.60;88.40;;;;;;5009603;28;20042;-72
2022/04/18 01:58:19;;;;;;;18.35;12.02;;;8.50;89.70;;;;;;4993438;28;20041;-72
2022/04/18 02:00:45;;;;;;;19.10;13.13;;;8.50;90.20;;;;;;5025917;28;20049;-72
2022/04/18 02:03:11;;;;;;;20.70;14.25;;;8.50;89.50;;;;;;4993021;28;20034;-72
2022/04/18 02:05:36;;;;;;;17.58;11.25;;;8.50;90.70;;;;;;5008318;28;20047;-71
2022/04/18 02:08:02;;;;;;;19.33;12.48;;;8.50;90.20;;;;;;5025814;28;20049;-72
2022/04/18 02:10:27;;;;;;;18.65;12.05;;;8.60;88.90;;;;;;5024116;28;20042;-72
2022/04/18 02:12:54;;;;;;;21.33;13.00;;;8.50;89.10;;;;;;4973305;28;20046;-72
2022/04/18 02:15:21;;;;;;;19.70;12.45;;;8.50;89.20;;;;;;5005825;28;20038;-72
2022/04/18 02:17:46;;;;;;;19.08;12.95;;;8.50;89.80;;;;;;5009034;28;20125;-72
2022/04/18 02:20:12;;;;;;;21.50;12.90;;;8.60;88.40;;;;;;4991733;28;20138;-72
2022/04/18 02:22:37;;;;;;;16.45;11.93;;;8.50;90.00;;;;;;5025719;28;20427;-72
2022/04/18 02:25:04;;;;;;;18.65;12.02;;;8.40;90.90;;;;;;5008675;28;20487;-72
2022/04/18 02:27:29;;;;;;;18.40;12.27;;;8.30;90.90;;;;;;4992619;28;20049;-72
2022/04/18 02:29:55;;;;;;;20.13;12.48;;;8.30;91.10;;;;;;4976520;28;20129;-71
2022/04/18 02:35:05;;;;;;;20.58;13.15;;;8.20;92.00;;;;;;4992389;28;20042;-72
2022/04/18 02:37:30;;;;;;;18.10;11.82;;;8.20;91.90;;;;;;4976772;28;20046;-71
2022/04/18 02:39:59;;;;;;;18.95;12.48;;;8.10;91.90;;;;;;5024734;28;20046;-72
2022/04/18 02:42:25;;;;;;;17.80;11.98;;;8.20;91.60;;;;;;4992856;28;20395;-71
2022/04/18 02:44:50;;;;;;;19.23;12.85;;;8.20;91.30;;;;;;4992107;28;20045;-71
2022/04/18 02:47:16;;;;;;;19.80;12.77;;;8.20;91.90;;;;;;5025619;28;20043;-71
2022/04/18 02:49:41;;;;;;;19.05;12.13;;;8.10;91.90;;;;;;5009999;28;20072;-71
2022/04/18 02:52:07;;;;;;;17.83;12.15;;;8.10;92.00;;;;;;5025220;28;20039;-71
2022/04/18 02:54:33;;;;;;;17.25;12.30;;;8.20;91.70;;;;;;5024207;28;20129;-71
2022/04/18 02:56:58;;;;;;;18.13;12.23;;;8.10;92.00;;;;;;4993774;28;20125;-72
2022/04/18 02:59:24;;;;;;;19.10;12.20;;;8.00;92.30;;;;;;4975941;28;20035;-71
2022/04/18 03:01:49;;;;;;;18.33;12.48;;;7.90;92.80;;;;;;5025469;28;20082;-71
2022/04/18 03:04:15;;;;;;;18.35;12.38;;;7.90;93.70;;;;;;5024085;28;20046;-71
2022/04/18 03:06:40;;;;;;;19.42;12.45;;;7.90;92.80;;;;;;4992421;28;20084;-72
2022/04/18 03:09:06;;;;;;;17.73;12.15;;;7.90;93.90;;;;;;4992161;28;20395;-71
2022/04/18 03:11:32;;;;;;;17.35;12.90;;;7.80;92.90;;;;;;5025010;28;20379;-72
2022/04/18 03:13:57;;;;;;;16.05;11.45;;;7.80;93.30;;;;;;5024085;28;20030;-71
2022/04/18 03:16:23;;;;;;;19.17;12.60;;;7.90;93.30;;;;;;5024495;28;20462;-71
2022/04/18 03:18:49;;;;;;;19.40;12.82;;;7.80;93.70;;;;;;5003664;28;20042;-71
2022/04/18 03:21:16;;;;;;;16.88;11.65;;;7.80;93.40;;;;;;4956672;28;20066;-71
2022/04/18 03:23:44;;;;;;;18.58;12.23;;;7.80;93.60;;;;;;5006168;28;20035;-71
2022/04/18 03:26:10;;;;;;;19.63;12.65;;;7.80;93.70;;;;;;4976382;28;20395;-71
2022/04/18 03:28:36;;;;;;;17.35;12.25;;;7.80;93.30;;;;;;5023187;28;20050;-71
2022/04/18 03:31:02;;;;;;;19.92;12.75;;;7.90;92.90;;;;;;5025060;28;20046;-72
2022/04/18 03:33:27;;;;;;;19.77;12.27;;;7.80;93.40;;;;;;5011436;28;20037;-72
2022/04/18 03:41:21;;;;;;;18.30;12.45;;;7.80;93.10;;;;;;4995363;28;20489;-72
2022/04/18 03:43:47;;;;;;;19.02;13.00;;;7.80;93.10;;;;;;4979650;28;20046;-71
2022/04/18 03:46:12;;;;;;;19.52;12.85;;;7.80;93.40;;;;;;4996493;28;20035;-71
2022/04/18 03:48:38;;;;;;;19.50;13.15;;;7.70;93.70;;;;;;5011194;28;20575;-71
2022/04/18 03:51:03;;;;;;;23.65;12.15;;;7.70;93.60;;;;;;4979345;28;20495;-71
2022/04/18 03:53:29;;;;;;;19.45;12.75;;;7.70;93.80;;;;;;5011606;28;20046;-71
2022/04/18 03:55:54;;;;;;;18.30;12.13;;;7.70;93.70;;;;;;5027468;28;20120;-71
2022/04/18 03:58:20;;;;;;;19.15;12.02;;;7.60;94.10;;;;;;5026901;28;20035;-72
2022/04/18 04:00:45;;;;;;;17.27;11.90;;;7.70;94.40;;;;;;5007427;28;20086;-72
2022/04/18 04:03:12;;;;;;;19.48;12.77;;;7.60;94.00;;;;;;5006146;28;20048;-71
2022/04/18 04:05:38;;;;;;;17.88;11.80;;;7.60;94.00;;;;;;5026356;28;20030;-71
2022/04/18 04:08:07;;;;;;;20.10;12.38;;;7.70;93.90;;;;;;5027312;28;20129;-71
2022/04/18 04:10:33;;;;;;;18.42;12.65;;;7.70;93.70;;;;;;4994724;28;20042;-71
2022/04/18 04:12:59;;;;;;;17.10;11.80;;;7.70;93.80;;;;;;5011404;28;20081;-71
2022/04/18 04:15:25;;;;;;;17.73;12.25;;;7.60;94.10;;;;;;5010486;28;20050;-71
2022/04/18 04:17:50;;;;;;;15.88;11.57;;;7.60;93.90;;;;;;5027746;28;20099;-71
2022/04/18 04:20:16;;;;;;;17.83;11.52;;;7.50;94.20;;;;;;5026078;28;20100;-71
2022/04/18 04:22:48;;;;;;;17.70;11.40;;;7.40;94.90;;;;;;4995021;28;20057;-71
2022/04/18 04:25:18;;;;;;;17.33;12.10;;;7.40;94.80;;;;;;4994557;28;20046;-71
2022/04/18 04:27:44;;;;;;;17.10;11.77;;;7.30;95.00;;;;;;4978705;28;20124;-71
2022/04/18 04:30:10;;;;;;;16.55;11.00;;;7.30;95.20;;;;;;5010186;28;20464;-71
2022/04/18 04:32:35;;;;;;;16.75;10.70;;;7.30;95.40;;;;;;4994841;28;20042;-71
2022/04/18 04:35:01;;;;;;;18.70;11.73;;;7.30;95.20;;;;;;4994600;28;20164;-71
2022/04/18 04:37:26;;;;;;;18.77;11.73;;;7.30;95.00;;;;;;4978789;28;20125;-71
2022/04/18 04:39:52;;;;;;;16.13;10.88;;;7.20;95.60;;;;;;5025765;28;20039;-71
2022/04/18 04:42:19;;;;;;;16.88;11.35;;;7.30;95.50;;;;;;5010589;28;20038;-71
2022/04/18 04:44:44;;;;;;;17.75;10.90;;;7.30;95.70;;;;;;4993592;28;20045;-71
2022/04/18 04:47:11;;;;;;;15.50;10.93;;;7.30;95.20;;;;;;5010639;28;20050;-71
2022/04/18 04:49:37;;;;;;;16.25;11.27;;;7.30;95.40;;;;;;4978198;28;20037;-71
2022/04/18 04:52:04;;;;;;;17.65;11.23;;;7.30;95.90;;;;;;4994391;28;20050;-71
2022/04/18 04:54:29;;;;;;;17.98;10.90;;;7.30;95.70;;;;;;4993903;28;20049;-71
2022/04/18 04:56:55;;;;;;;16.17;10.95;;;7.20;95.80;;;;;;4978451;28;20045;-71
2022/04/18 04:59:20;;;;;;;18.15;11.20;;;7.30;96.10;;;;;;5024157;28;20068;-71
2022/04/18 05:01:46;;;;;;;16.10;10.88;;;7.30;95.90;;;;;;5027254;28;20483;-71
2022/04/18 05:04:12;;;;;;;16.52;10.73;;;7.20;96.10;;;;;;5026227;28;20046;-71
2022/04/18 05:06:37;;;;;;;16.55;10.70;;;7.30;96.20;;;;;;5026931;28;20053;-71
2022/04/18 05:09:03;;;;;;;16.13;10.57;;;7.20;95.90;;;;;;5025890;28;20046;-71
2022/04/18 05:11:28;;;;;;;16.88;10.25;;;7.30;95.70;;;;;;5010409;28;20487;-71
2022/04/18 05:13:54;;;;;;;16.42;11.07;;;7.30;95.70;;;;;;5006188;28;20046;-71
2022/04/18 05:16:20;;;;;;;16.67;11.02;;;7.40;95.70;;;;;;4974516;28;20039;-71
2022/04/18 05:18:46;;;;;;;15.57;10.00;;;7.40;96.10;;;;;;5013086;28;20041;-71
2022/04/18 05:21:12;;;;;;;13.57;9.32;;;7.30;96.10;;;;;;5026594;28;20430;-71
2022/04/18 05:23:38;;;;;;;15.13;9.80;;;7.30;96.10;;;;;;4976679;28;20050;-71
2022/04/18 05:26:04;;;;;;;15.52;10.23;;;7.30;96.60;;;;;;4993660;28;20042;-71
2022/04/18 05:28:29;;;;;;;17.23;10.40;;;7.30;96.80;;;;;;5025428;28;20069;-71
2022/04/18 05:30:55;;;;;;;15.98;9.85;;;7.30;96.80;;;;;;4993523;28;20104;-71
2022/04/18 05:33:23;;;;;;;15.45;10.18;;;7.40;96.70;;;;;;5025724;28;20082;-71
2022/04/18 05:35:50;;;;;;;13.73;9.40;;;7.40;96.80;;;;;;4977284;28;20483;-72
2022/04/18 05:38:16;;;;;;;16.05;9.48;;;7.50;96.50;;;;;;4993821;28;20417;-71
2022/04/18 05:40:42;;;;;;;16.33;10.13;;;7.50;96.50;;;;;;5026567;28;20042;-72
2022/04/18 05:43:08;;;;;;;15.90;10.25;;;7.60;97.00;;;;;;5022740;28;20045;-71
2022/04/18 05:45:36;;;;;;;14.73;10.15;;;7.50;96.80;;;;;;5007384;28;20042;-71
2022/04/18 05:48:01;;;;;;;13.00;9.15;;;7.60;96.70;;;;;;5026046;28;20038;-72
2022/04/18 05:50:27;;;;;;;13.23;8.80;;;7.80;96.00;;;;;;4993298;28;20495;-72
2022/04/18 05:52:53;;;;;;;14.70;9.90;;;7.90;95.90;;;;;;4976900;28;20073;-72
2022/04/18 05:55:20;;;;;;;14.65;9.77;;;7.90;97.10;;;;;;4989206;28;20041;-72
2022/04/18 05:57:45;;;;;;;13.10;8.65;;;7.90;96.70;;;;;;4989677;28;20052;-72
2022/04/18 06:00:11;;;;;;;12.95;8.68;;;7.90;96.80;;;;;;4975542;28;20475;-72
2022/04/18 06:02:37;;;;;;;13.55;9.13;;;8.00;96.50;;;;;;4989884;28;20046;-72
2022/04/18 06:05:03;;;;;;;13.57;9.40;;;8.10;96.50;;;;;;4982312;28;20491;-72
2022/04/18 06:07:28;;;;;;;15.90;9.57;;;8.20;95.90;;;;;;4967344;28;20038;-72
2022/04/18 06:09:54;;;;;;;16.67;9.68;;;8.30;96.10;;;;;;5005068;28;20076;-72
2022/04/18 06:12:21;;;;;;;16.00;9.05;;;8.30;96.00;;;;;;4994607;28;20081;-72
2022/04/18 06:14:47;;;;;;;14.35;8.60;;;8.40;95.70;;;;;;4994989;28;20034;-72
2022/04/18 06:17:13;;;;;;;14.20;8.88;;;8.50;95.50;;;;;;4992464;28;20117;-72
2022/04/18 06:19:38;;;;;;;14.38;8.75;;;8.60;94.90;;;;;;5024442;28;20049;-72
2022/04/18 06:22:04;;;;;;;15.75;9.70;;;8.70;94.40;;;;;;4992713;28;20038;-72
2022/04/18 06:24:29;;;;;;;13.65;8.60;;;8.70;95.00;;;;;;4992328;28;20042;-72
2022/04/18 06:26:55;;;;;;;14.35;9.57;;;8.80;95.00;;;;;;5011509;28;20091;-72
2022/04/18 06:29:21;;;;;;;14.27;9.18;;;8.80;95.10;;;;;;5012048;28;20038;-72
2022/04/18 06:31:46;;;;;;;14.55;9.00;;;9.00;94.90;;;;;;5000731;28;20132;-72
2022/04/18 06:34:12;;;;;;;13.30;8.95;;;9.00;95.00;;;;;;5018385;28;20073;-72
2022/04/18 06:36:39;;;;;;;14.27;8.88;;;9.10;95.30;;;;;;5023862;28;20046;-72
2022/04/18 06:39:05;;;;;;;13.90;8.55;;;9.20;95.40;;;;;;5008334;28;20060;-72
2022/04/18 06:41:30;;;;;;;13.18;8.82;;;9.30;93.90;;;;;;5011782;28;20037;-72
2022/04/18 06:43:56;;;;;;;13.27;8.48;;;9.30;94.30;;;;;;5003070;28;20042;-72
2022/04/18 06:46:22;;;;;;;12.82;8.35;;;9.40;94.20;;;;;;4975924;28;20080;-72
2022/04/18 06:48:47;;;;;;;14.00;9.02;;;9.60;92.20;;;;;;4992824;28;20074;-72
2022/04/18 06:51:13;;;;;;;14.95;8.13;;;9.70;91.00;;;;;;5024954;28;20050;-72
2022/04/18 06:53:39;;;;;;;12.63;8.27;;;10.00;85.90;;;;;;4979372;28;20038;-73
2022/04/18 06:58:49;;;;;;;13.80;8.30;;;10.10;83.10;;;;;;5018740;28;20043;-72
2022/04/18 07:01:15;;;;;;;14.05;8.23;;;10.10;84.00;;;;;;4981866;28;20042;-72
2022/04/18 07:03:40;;;;;;;12.02;7.38;;;10.20;80.50;;;;;;4995824;28;20038;-72
2022/04/18 07:06:06;;;;;;;13.20;8.38;;;10.30;80.50;;;;;;4997479;28;20041;-72
2022/04/18 07:08:31;;;;;;;12.40;8.18;;;10.30;82.10;;;;;;4982779;28;20051;-72
2022/04/18 07:10:57;;;;;;;13.02;8.05;;;10.40;82.90;;;;;;4988442;28;20100;-73
2022/04/18 07:13:22;;;;;;;13.40;8.25;;;10.40;85.60;;;;;;4977179;28;20042;-72
2022/04/18 07:15:48;;;;;;;13.00;8.30;;;10.40;85.50;;;;;;4973946;28;20128;-73
2022/04/18 07:18:13;;;;;;;11.70;7.82;;;10.50;84.70;;;;;;4959294;28;20038;-72
2022/04/18 07:20:41;;;;;;;13.27;7.82;;;10.60;85.60;;;;;;4970693;28;20149;-72
2022/04/18 07:23:07;;;;;;;12.43;7.07;;;10.70;84.50;;;;;;4971146;28;20042;-73
2022/04/18 07:25:32;;;;;;;20.10;8.80;;;10.90;80.40;;;;;;4991399;28;20092;-73
2022/04/18 07:27:58;;;;;;;13.27;7.60;;;11.10;79.00;;;;;;4973257;28;20056;-73
2022/04/18 07:30:29;;;;;;;12.88;6.18;;;11.30;70.20;;;;;;4970260;28;20046;-73
2022/04/18 07:32:55;;;;;;;13.68;8.00;;;11.50;65.30;;;;;;4977579;28;20129;-73
2022/04/18 07:35:21;;;;;;;14.13;6.35;;;11.50;64.80;;;;;;4977871;28;20046;-73
2022/04/18 07:40:32;;;;;;;13.27;8.70;;;11.60;66.00;;;;;;4970358;28;20108;-73
2022/04/18 07:42:58;;;;;;;10.88;6.63;;;11.70;63.30;;;;;;4992067;28;20487;-74
2022/04/18 07:45:23;;;;;;;11.85;6.47;;;11.80;64.40;;;;;;5002217;28;20053;-74
2022/04/18 07:47:52;;;;;;;10.32;6.47;;;11.80;62.40;;;;;;4983846;28;20479;-73
2022/04/18 07:50:18;;;;;;;12.25;7.15;;;11.90;62.60;;;;;;4971706;28;20061;-73
2022/04/18 07:52:44;;;;;;;12.18;6.90;;;12.00;64.00;;;;;;4987737;28;20045;-74
2022/04/18 07:55:10;;;;;;;13.63;7.43;;;12.10;63.30;;;;;;4987649;28;20038;-73
2022/04/18 07:57:37;;;;;;;11.77;7.20;;;12.10;64.50;;;;;;4985699;28;20045;-73
2022/04/18 08:00:05;;;;;;;12.20;7.70;;;12.10;66.20;;;;;;4970381;28;20395;-73
2022/04/18 08:02:30;;;;;;;10.73;6.07;;;12.20;66.40;;;;;;5014230;28;20042;-74
2022/04/18 08:04:56;;;;;;;10.95;6.82;;;12.40;62.80;;;;;;4996431;28;20042;-74
2022/04/18 08:07:21;;;;;;;10.98;6.40;;;12.40;63.30;;;;;;4978764;28;20038;-74
2022/04/18 08:09:47;;;;;;;11.95;6.93;;;12.50;63.30;;;;;;5014383;28;20132;-74
2022/04/18 08:12:12;;;;;;;13.00;6.78;;;12.70;61.00;;;;;;4965971;28;20224;-73
2022/04/18 08:14:38;;;;;;;12.35;6.60;;;12.80;61.70;;;;;;4990524;28;20378;-74
2022/04/18 08:17:04;;;;;;;10.07;5.00;;;12.80;63.70;;;;;;4980758;28;20266;-74
2022/04/18 08:19:30;;;;;;;11.75;6.63;;;13.00;62.60;;;;;;4969893;28;20042;-73
2022/04/18 08:21:56;;;;;;;12.27;6.38;;;13.10;59.20;;;;;;4987688;28;20107;-74
2022/04/18 08:24:21;;;;;;;10.63;5.72;;;13.10;60.60;;;;;;5001846;28;20073;-74
2022/04/18 08:26:48;;;;;;;9.77;5.40;;;13.20;58.90;;;;;;4974121;28;20039;-74
2022/04/18 08:29:14;;;;;;;10.88;5.95;;;13.30;57.20;;;;;;5021809;28;20076;-74
2022/04/18 08:31:39;;;;;;;11.13;6.38;;;13.40;56.40;;;;;;5005570;28;20043;-74
2022/04/18 08:34:05;;;;;;;12.25;6.03;;;13.30;58.70;;;;;;4990055;28;20411;-74
2022/04/18 08:36:33;;;;;;;10.85;5.93;;;13.40;59.20;;;;;;4988116;28;20057;-74
2022/04/18 08:38:59;;;;;;;10.85;6.13;;;13.60;58.30;;;;;;4978223;28;20076;-74
2022/04/18 08:41:32;;;;;;;11.15;6.32;;;13.70;57.60;;;;;;4978218;28;20054;-74
2022/04/18 08:43:57;;;;;;;11.35;5.80;;;13.80;58.80;;;;;;5027334;28;20061;-74
2022/04/18 08:46:23;;;;;;;12.18;6.45;;;13.90;58.70;;;;;;5026819;28;20034;-74
2022/04/18 08:54:21;;;;;;;11.13;6.53;;;14.20;56.50;;;;;;4991250;28;20054;-74
2022/04/18 08:56:46;;;;;;;9.38;6.05;;;14.30;57.30;;;;;;4982855;28;20046;-74
2022/04/18 08:59:12;;;;;;;10.40;6.50;;;14.40;58.30;;;;;;4993861;28;20549;-74
2022/04/18 09:01:46;;;;;;;10.48;6.53;;;14.60;57.40;;;;;;4994173;28;20608;-75
2022/04/18 09:04:12;;;;;;;10.30;6.07;;;14.70;54.10;;;;;;5010135;28;20525;-74
2022/04/18 09:06:39;;;;;;;11.10;5.80;;;14.70;54.20;;;;;;5026311;28;20070;-74
2022/04/18 09:09:04;;;;;;;10.13;5.95;;;14.70;57.40;;;;;;4976546;28;20082;-74
2022/04/18 09:11:37;;;;;;;10.55;6.55;;;14.80;55.80;;;;;;5010123;28;20481;-74
2022/04/18 09:14:15;;;;;;;11.40;6.57;;;14.90;55.80;;;;;;4993525;28;20041;-74
2022/04/18 09:16:41;;;;;;;12.05;6.32;;;15.00;56.10;;;;;;5009720;28;20038;-74
2022/04/18 09:19:10;;;;;;;10.43;6.20;;;15.10;55.70;;;;;;4993775;28;20088;-75
2022/04/18 09:21:57;;;;;;;9.65;4.72;;;15.10;54.60;;;;;;4993290;28;20057;-75
2022/04/18 09:24:37;;;;;;;11.52;6.18;;;15.40;52.40;;;;;;4994078;28;20391;-74
2022/04/18 09:27:12;;;;;;;11.05;6.07;;;15.40;52.40;;;;;;4992785;28;20105;-74
2022/04/18 09:29:39;;;;;;;11.23;6.40;;;15.40;54.70;;;;;;5024972;28;20042;-74
2022/04/18 09:32:13;;;;;;;10.73;5.78;;;15.50;55.20;;;;;;4993511;28;20046;-75
2022/04/18 09:34:39;;;;;;;10.77;6.05;;;15.60;56.30;;;;;;4993424;28;20100;-74
2022/04/18 09:37:13;;;;;;;8.25;5.20;;;15.70;57.20;;;;;;4976791;28;20077;-74
2022/04/18 09:39:51;;;;;;;10.23;5.53;;;15.90;53.60;;;;;;4993032;28;20035;-75
2022/04/18 09:42:17;;;;;;;9.45;5.30;;;15.90;56.40;;;;;;4989949;28;20046;-75
2022/04/18 09:44:42;;;;;;;10.18;5.47;;;16.00;55.80;;;;;;4975722;28;20038;-74
2022/04/18 09:47:18;;;;;;;10.70;5.68;;;16.20;50.90;;;;;;4975927;28;20129;-74
2022/04/18 09:49:45;;;;;;;10.10;5.93;;;16.20;52.70;;;;;;5025725;28;20049;-74
2022/04/18 09:52:16;;;;;;;9.02;5.30;;;16.30;52.20;;;;;;4992585;28;20042;-74
2022/04/18 09:54:54;;;;;;;8.80;5.28;;;16.40;53.90;;;;;;4975497;28;20034;-74
2022/04/18 09:57:25;;;;;;;9.18;5.00;;;16.60;53.00;;;;;;4974326;28;20498;-75
2022/04/18 09:59:53;;;;;;;7.50;4.37;;;16.70;50.60;;;;;;4986772;28;20042;-75
2022/04/18 10:02:19;;;;;;;8.52;4.93;;;16.80;48.90;;;;;;4983612;28;20117;-75
2022/04/18 10:04:46;;;;;;;8.40;4.80;;;16.90;49.60;;;;;;4976364;28;20076;-74
2022/04/18 10:07:13;;;;;;;8.30;4.70;;;17.00;48.40;;;;;;4975660;28;20510;-74
2022/04/18 10:09:40;;;;;;;8.23;4.93;;;17.10;49.20;;;;;;5008786;28;20034;-74
2022/04/18 10:12:08;;;;;;;12.40;6.60;;;17.10;49.20;;;;;;4991874;28;20042;-74
2022/04/18 10:14:34;;;;;;;9.38;5.68;;;17.20;48.90;;;;;;4976388;28;20128;-75
2022/04/18 10:17:02;;;;;;;9.65;5.35;;;17.40;48.90;;;;;;4971756;28;20089;-74
2022/04/18 10:19:52;;;;;;;9.75;5.25;;;17.30;51.50;;;;;;5000802;28;20490;-74
2022/04/18 10:22:33;;;;;;;8.85;5.35;;;17.50;51.10;;;;;;5025005;28;20085;-74
2022/04/18 10:25:05;;;;;;;9.77;5.28;;;17.40;50.90;;;;;;4976424;28;20100;-74
2022/04/18 10:27:45;;;;;;;;;;;17.60;51.60;;;;;;5025346;28;20053;-76
2022/04/18 10:30:11;;;;;;;8.32;4.47;;;17.70;49.40;;;;;;5009045;28;19918;-75
2022/04/18 10:32:38;;;;;;;8.02;4.80;;;17.70;47.60;;;;;;5023814;28;20034;-75
2022/04/18 10:35:04;;;;;;;9.43;5.75;;;17.70;49.50;;;;;;4990628;28;20058;-75
2022/04/18 10:37:31;;;;;;;8.85;4.53;;;17.80;50.10;;;;;;4976557;28;20069;-74
2022/04/18 10:39:57;;;;;;;8.00;3.95;;;17.80;50.70;;;;;;4985967;28;20038;-75
2022/04/18 10:42:27;;;;;;;5.85;3.30;;;17.90;45.30;;;;;;4990587;28;20046;-75
2022/04/18 10:45:19;;;;;;;6.95;3.00;;;17.90;43.90;;;;;;4992550;28;20388;-75
2022/04/18 10:48:08;;;;;;;7.35;3.45;;;18.00;42.20;;;;;;5023981;28;20053;-76
2022/04/18 10:50:43;;;;;;;6.70;3.65;;;17.90;41.80;;;;;;5019246;28;20043;-75
2022/04/18 10:53:30;;;;;;;5.97;3.10;;;17.90;44.60;;;;;;4972953;28;20046;-75
2022/04/18 10:55:56;;;;;;;6.80;3.35;;;17.90;41.20;;;;;;5022579;28;20132;-75
2022/04/18 10:58:26;;;;;;;6.32;3.40;;;17.90;43.90;;;;;;4975770;28;20129;-75
2022/04/18 11:00:52;;;;;;;8.07;3.72;;;18.00;41.80;;;;;;4991377;28;20125;-75
2022/04/18 11:03:41;;;;;;;5.90;3.05;;;18.00;42.70;;;;;;4994936;28;20038;-76
2022/04/18 11:06:32;;;;;;;7.80;2.97;;;18.10;38.40;;;;;;5005284;28;20066;-75
2022/04/18 11:09:07;;;;;;;6.95;3.53;;;18.00;40.90;;;;;;4984466;28;20051;-75
2022/04/18 11:12:06;;;;;;;6.47;3.13;;;18.10;41.90;;;;;;5024864;28;20100;-76
2022/04/18 11:14:38;;;;;;;7.38;3.33;;;18.20;42.60;;;;;;4953112;28;20039;-77
2022/04/18 11:17:06;;;;;;;8.70;3.50;;;18.20;42.40;;;;;;5007305;28;20026;-76
2022/04/18 11:19:39;;;;;;;7.53;4.20;;;18.30;40.00;;;;;;4991074;28;20890;-75
2022/04/18 11:22:20;;;;;;;6.90;3.10;;;18.20;41.60;;;;;;4991646;28;20093;-76
2022/04/18 11:24:51;;;;;;;7.33;3.03;;;18.30;40.00;;;;;;4972434;28;20503;-76
2022/04/18 11:27:18;;;;;;;6.60;3.30;;;18.30;38.10;;;;;;5009246;28;20046;-75
2022/04/18 11:29:59;;;;;;;6.80;3.58;;;18.20;40.00;;;;;;4991276;28;20126;-76
2022/04/18 11:32:36;;;;;;;6.30;3.10;;;18.30;41.50;;;;;;5002920;28;20057;-75
2022/04/18 11:35:05;;;;;;;6.57;3.28;;;18.40;38.50;;;;;;4989806;28;20035;-76
2022/04/18 11:37:34;;;;;;;6.68;3.75;;;18.30;37.90;;;;;;5023853;28;20042;-75
2022/04/18 11:40:02;;;;;;;8.05;3.95;;;18.30;41.00;;;;;;4974886;28;20082;-76
2022/04/18 11:42:32;;;;;;;7.22;3.92;;;18.40;39.90;;;;;;4991904;28;20046;-76
2022/04/18 11:45:00;;;;;;;7.45;4.22;;;18.30;43.80;;;;;;4990525;28;20483;-76
2022/04/18 11:47:38;;;;;;;7.90;3.95;;;18.40;39.70;;;;;;5004751;28;20047;-75
2022/04/18 11:50:05;;;;;;;6.90;3.88;;;18.30;41.50;;;;;;4990405;28;20097;-76
2022/04/18 11:52:36;;;;;;;8.55;4.20;;;18.40;39.90;;;;;;5025119;28;20050;-76
2022/04/18 11:55:14;;;;;;;7.35;4.00;;;18.30;42.60;;;;;;4998234;28;20053;-75
2022/04/18 11:57:41;;;;;;;7.47;3.50;;;18.30;43.30;;;;;;4978974;28;20038;-76
2022/04/18 12:08:46;;;;;;;7.85;4.28;;;18.50;41.40;;;;;;4995365;28;20042;-76
2022/04/18 12:11:11;;;;;;;6.90;4.32;;;18.50;41.30;;;;;;4994843;28;20038;-75
2022/04/18 12:13:43;;;;;;;6.65;3.97;;;18.40;43.70;;;;;;4978498;28;20125;-75
2022/04/18 12:16:09;;;;;;;;;;;18.40;42.80;;;;;;4977501;28;20030;-75
2022/04/18 12:18:35;;;;;;;6.95;3.95;;;18.40;44.30;;;;;;4989353;28;20358;-76
2022/04/18 12:21:01;;;;;;;8.38;3.83;;;18.60;42.90;;;;;;4977477;28;20120;-76
2022/04/18 12:23:27;;;;;;;7.07;3.78;;;18.70;43.90;;;;;;4994129;28;20039;-76
2022/04/18 12:25:54;;;;;;;8.32;3.92;;;18.70;42.60;;;;;;4995056;28;20038;-76
2022/04/18 12:28:26;;;;;;;7.50;3.90;;;18.60;42.20;;;;;;4994001;28;20509;-76
2022/04/18 12:30:52;;;;;;;8.60;4.00;;;18.60;42.40;;;;;;4977261;28;20510;-76
2022/04/18 12:33:26;;;;;;;7.22;4.20;;;18.50;44.60;;;;;;4992472;28;20038;-76
2022/04/18 12:35:53;;;;;;;7.30;4.10;;;18.60;44.60;;;;;;4973154;28;20077;-76
2022/04/18 12:38:36;;;;;;;7.80;4.47;;;18.60;44.30;;;;;;5011007;28;20046;-76
2022/04/18 12:41:02;;;;;;;6.15;3.65;;;18.70;42.70;;;;;;5026827;28;20061;-76
2022/04/18 12:43:30;;;;;;;7.20;3.80;;;18.80;42.20;;;;;;4992752;28;20417;-76
2022/04/18 12:45:58;;;;;;;9.90;4.82;;;18.70;42.60;;;;;;5026445;28;20117;-76
2022/04/18 12:48:28;;;;;;;8.73;3.60;;;18.70;41.20;;;;;;4978367;28;20100;-76
2022/04/18 12:50:55;;;;;;;7.70;3.70;;;18.80;40.90;;;;;;5025769;28;20049;-76
2022/04/18 12:53:41;;;;;;;6.47;3.63;;;18.80;41.80;;;;;;4978565;28;20077;-76
2022/04/18 12:56:07;;;;;;;7.28;4.07;;;18.80;42.00;;;;;;4992092;28;20045;-76
2022/04/18 12:58:39;;;;;;;7.57;3.92;;;18.90;42.50;;;;;;4978143;28;20034;-76
2022/04/18 13:01:06;;;;;;;7.95;4.00;;;18.80;42.50;;;;;;4975822;28;20531;-76
2022/04/18 13:03:42;;;;;;;7.47;4.00;;;19.00;41.40;;;;;;4993156;28;20038;-76
2022/04/18 13:06:08;;;;;;;8.02;3.90;;;19.00;42.20;;;;;;4978780;28;20042;-77
2022/04/18 13:08:38;;;;;;;7.75;4.05;;;19.00;40.20;;;;;;4977245;28;20084;-76
2022/04/18 13:11:05;;;;;;;7.72;3.95;;;19.00;42.60;;;;;;5009955;28;20407;-76
2022/04/18 13:13:31;;;;;;;6.00;3.58;;;18.90;41.30;;;;;;4977593;28;20497;-76